Time;durP1;ratioP1;P1;durP2;ratioP2;P2;SDS_P1;SDS_P2;PMS_P1;PMS_P2;Temp;Humidity;BMP_temperature;BMP_pressure;BME280_temperature;BME280_humidity;BME280_pressure;Samples;Min_cycle;Max_cycle;Signal;HPM_P1;HPM_P2
2023/07/14 00:00:18;;;;;;;17.77;12.88;;;666.50;2406.40;;;;;;5095429;28;20024;-80
2023/07/14 00:02:46;;;;;;;18.90;13.38;;;666.30;2406.40;;;;;;5095621;28;20031;-80
2023/07/14 00:05:29;;;;;;;15.48;12.15;;;666.30;2432.00;;;;;;5095627;28;20038;-82
2023/07/14 00:07:56;;;;;;;18.02;12.02;;;666.20;2432.00;;;;;;5095286;28;20119;-81
2023/07/14 00:10:32;;;;;;;17.20;12.93;;;665.90;2432.00;;;;;;5095137;28;20099;-79
2023/07/14 00:12:59;;;;;;;17.08;13.65;;;665.70;2432.00;;;;;;5095138;28;20465;-82
2023/07/14 00:15:26;;;;;;;18.00;12.63;;;665.60;2432.00;;;;;;5095279;28;20024;-81
2023/07/14 00:17:55;;;;;;;17.48;12.50;;;665.60;2432.00;;;;;;5095499;28;20426;-80
2023/07/14 00:20:26;;;;;;;18.73;12.43;;;665.70;2432.00;;;;;;5095166;28;20024;-79
2023/07/14 00:22:55;;;;;;;18.05;12.77;;;665.70;2432.00;;;;;;5095278;28;20422;-79
2023/07/14 00:25:23;;;;;;;19.88;13.15;;;665.60;2432.00;;;;;;5096468;28;20070;-79
2023/07/14 00:27:50;;;;;;;20.15;13.35;;;665.60;2432.00;;;;;;5096572;28;20028;-78
2023/07/14 00:30:19;;;;;;;18.52;13.32;;;665.70;2432.00;;;;;;5095370;28;20020;-80
2023/07/14 00:32:46;;;;;;;18.75;13.25;;;665.70;2432.00;;;;;;5106251;28;20041;-79
2023/07/14 00:35:26;;;;;;;21.38;14.02;;;665.70;2432.00;;;;;;5107935;28;20057;-78
2023/07/14 00:37:55;;;;;;;21.52;12.60;;;665.90;2432.00;;;;;;5094943;28;20491;-80
2023/07/14 00:40:36;;;;;;;18.60;11.35;;;665.90;2432.00;;;;;;5095479;28;20020;-79
2023/07/14 00:43:03;;;;;;;15.90;10.70;;;665.90;2432.00;;;;;;5094848;28;20020;-81
2023/07/14 00:45:31;;;;;;;16.20;11.57;;;665.90;2432.00;;;;;;5094893;28;20028;-79
2023/07/14 00:48:03;;;;;;;17.10;11.75;;;665.90;2406.40;;;;;;5096879;28;20099;-80
2023/07/14 00:50:43;;;;;;;18.33;10.85;;;665.90;2406.40;;;;;;5097533;28;20028;-79
2023/07/14 00:53:17;;;;;;;18.23;12.00;;;665.90;2380.80;;;;;;5099797;28;20020;-81
2023/07/14 00:55:47;;;;;;;18.95;12.65;;;665.70;2432.00;;;;;;5097153;28;20028;-83
2023/07/14 00:58:16;;;;;;;19.45;12.60;;;665.60;2432.00;;;;;;5094340;28;20114;-81
2023/07/14 01:01:25;;;;;;;17.27;12.15;;;640.90;2432.00;;;;;;5094178;28;20031;-80
2023/07/14 01:03:55;;;;;;;15.88;11.75;;;640.80;2432.00;;;;;;5094049;28;20024;-81
2023/07/14 01:06:27;;;;;;;16.30;11.90;;;640.90;2432.00;;;;;;5095490;28;20062;-79
2023/07/14 01:09:05;;;;;;;16.67;10.50;;;665.60;2432.00;;;;;;5093747;28;20438;-80
2023/07/14 01:11:51;;;;;;;15.93;10.88;;;665.70;2406.40;;;;;;5094220;28;20422;-83
2023/07/14 01:14:21;;;;;;;18.75;10.52;;;665.70;2380.80;;;;;;5093985;28;20035;-80
2023/07/14 01:16:50;;;;;;;14.02;10.93;;;665.80;2380.80;;;;;;5093617;28;20112;-79
2023/07/14 01:19:23;;;;;;;19.58;10.77;;;665.90;2380.80;;;;;;5093810;28;20024;-81
2023/07/14 01:21:53;;;;;;;13.85;9.82;;;665.90;2355.20;;;;;;5093823;28;20020;-80
2023/07/14 01:24:33;;;;;;;14.00;10.40;;;666.00;2355.20;;;;;;5094521;28;20024;-79
2023/07/14 01:27:04;;;;;;;15.05;11.32;;;666.00;2380.80;;;;;;5093761;28;20036;-80
2023/07/14 01:29:32;;;;;;;17.55;11.57;;;665.80;2432.00;;;;;;5093711;28;20056;-81
2023/07/14 01:31:59;;;;;;;20.45;11.65;;;665.70;2432.00;;;;;;5093068;28;20052;-80
2023/07/14 01:34:28;;;;;;;14.27;11.45;;;665.70;2432.00;;;;;;5094540;28;20103;-82
2023/07/14 01:36:58;;;;;;;17.25;11.07;;;665.70;2432.00;;;;;;5093266;28;20064;-81
2023/07/14 01:39:28;;;;;;;16.83;11.27;;;665.70;2432.00;;;;;;5093600;28;20032;-79
2023/07/14 01:41:54;;;;;;;15.95;11.73;;;640.90;2432.00;;;;;;5093390;28;20039;-81
2023/07/14 01:44:21;;;;;;;18.85;11.75;;;640.90;2432.00;;;;;;5094431;28;20024;-79
2023/07/14 01:46:48;;;;;;;17.17;10.98;;;640.70;2432.00;;;;;;5094895;28;20375;-80
2023/07/14 01:49:30;;;;;;;15.77;11.00;;;665.60;2432.00;;;;;;5087245;28;20029;-83
2023/07/14 01:52:01;;;;;;;15.88;10.80;;;640.70;2432.00;;;;;;5075170;28;20036;-81
2023/07/14 01:54:34;;;;;;;15.18;10.63;;;640.80;2432.00;;;;;;5076244;28;20031;-79
2023/07/14 01:57:06;;;;;;;18.85;10.27;;;640.90;2432.00;;;;;;5075879;28;20392;-82
2023/07/14 01:59:38;;;;;;;19.08;10.25;;;640.90;2432.00;;;;;;5074944;28;20491;-81
2023/07/14 02:02:11;;;;;;;11.80;6.10;;;665.70;2432.00;;;;;;5077270;28;20036;-79
2023/07/14 02:04:39;;;;;;;17.10;6.30;;;665.90;2432.00;;;;;;5072640;28;20077;-79
2023/07/14 02:07:04;;;;;;;14.45;6.40;;;666.00;2432.00;;;;;;5072445;28;20032;-81
2023/07/14 02:09:32;;;;;;;11.68;6.68;;;666.20;2432.00;;;;;;5072373;28;20048;-82
2023/07/14 02:12:03;;;;;;;12.13;6.35;;;666.20;2432.00;;;;;;5073719;28;20017;-79
2023/07/14 02:14:38;;;;;;;8.75;7.13;;;666.20;2432.00;;;;;;5072792;28;20085;-80
2023/07/14 02:17:09;;;;;;;12.10;7.90;;;666.20;2432.00;;;;;;5072777;28;20060;-79
2023/07/14 02:19:35;;;;;;;13.40;6.60;;;666.20;2432.00;;;;;;5073203;28;20407;-78
2023/07/14 02:22:02;;;;;;;11.80;5.03;;;666.20;2432.00;;;;;;5072559;28;20021;-80
2023/07/14 02:24:30;;;;;;;10.90;6.07;;;666.20;2432.00;;;;;;5072456;28;20024;-79
2023/07/14 02:27:01;;;;;;;10.98;6.38;;;666.20;2432.00;;;;;;5072195;28;20086;-79
2023/07/14 02:29:27;;;;;;;14.52;6.07;;;666.30;2432.00;;;;;;5075477;28;20032;-80
2023/07/14 02:32:04;;;;;;;9.80;6.00;;;666.30;2432.00;;;;;;5075551;28;20363;-79
2023/07/14 02:34:39;;;;;;;9.10;5.28;;;666.30;2432.00;;;;;;5073764;28;20369;-78
2023/07/14 02:37:43;;;;;;;10.32;5.78;;;666.30;2432.00;;;;;;5092142;28;20081;-79
2023/07/14 02:40:10;;;;;;;9.15;5.55;;;666.30;2432.00;;;;;;5074884;28;20021;-78
2023/07/14 02:42:38;;;;;;;10.25;5.60;;;666.20;2432.00;;;;;;5074407;28;20025;-78
2023/07/14 02:45:05;;;;;;;11.57;5.90;;;666.20;2432.00;;;;;;5072731;28;20112;-82
2023/07/14 02:47:34;;;;;;;10.00;5.32;;;666.00;2432.00;;;;;;5088646;28;20376;-79
2023/07/14 02:50:00;;;;;;;10.20;5.65;;;666.00;2432.00;;;;;;5073654;28;20100;-80
2023/07/14 02:52:26;;;;;;;10.00;5.45;;;666.00;2432.00;;;;;;5088998;28;20059;-80
2023/07/14 02:54:51;;;;;;;6.57;5.55;;;665.90;2432.00;;;;;;5091024;28;20031;-80
2023/07/14 02:57:17;;;;;;;9.30;5.40;;;665.70;2432.00;;;;;;5070780;28;20111;-78
2023/07/14 02:59:43;;;;;;;12.45;5.80;;;665.70;2432.00;;;;;;5072140;28;20082;-80
2023/07/14 03:02:08;;;;;;;12.30;7.10;;;665.80;2432.00;;;;;;5072038;28;20029;-80
2023/07/14 03:04:34;;;;;;;12.52;6.80;;;665.70;2432.00;;;;;;5072057;28;20033;-80
2023/07/14 03:07:01;;;;;;;11.52;6.10;;;665.70;2432.00;;;;;;5072095;28;20096;-81
2023/07/14 03:09:27;;;;;;;10.95;5.85;;;665.70;2432.00;;;;;;5079101;28;20131;-77
2023/07/14 03:11:53;;;;;;;12.73;5.80;;;665.70;2432.00;;;;;;5084346;28;20530;-80
2023/07/14 03:14:18;;;;;;;9.40;5.72;;;665.60;2432.00;;;;;;5071851;28;20051;-78
2023/07/14 03:16:44;;;;;;;13.90;5.75;;;640.90;2432.00;;;;;;5072996;28;20480;-79
2023/07/14 03:19:10;;;;;;;11.80;5.47;;;640.90;2432.00;;;;;;5071967;28;20556;-79
2023/07/14 03:21:36;;;;;;;12.30;4.93;;;640.80;2432.00;;;;;;5071745;28;20029;-78
2023/07/14 03:24:02;;;;;;;10.13;5.53;;;640.80;2432.00;;;;;;5072490;28;20484;-79
2023/07/14 03:26:27;;;;;;;8.15;4.95;;;640.80;2432.00;;;;;;5071703;28;20075;-80
2023/07/14 03:28:53;;;;;;;8.85;4.90;;;665.60;2432.00;;;;;;5071725;28;20041;-80
2023/07/14 03:31:19;;;;;;;9.63;5.00;;;665.60;2432.00;;;;;;5071726;28;20074;-78
2023/07/14 03:33:45;;;;;;;14.50;5.78;;;665.60;2432.00;;;;;;5071862;28;20107;-83
2023/07/14 03:36:13;;;;;;;7.95;4.70;;;665.60;2432.00;;;;;;5071624;28;20090;-81
2023/07/14 03:38:44;;;;;;;8.35;4.78;;;665.60;2432.00;;;;;;5073099;28;20020;-81
2023/07/14 03:41:12;;;;;;;10.60;5.00;;;665.60;2432.00;;;;;;5071803;28;20033;-81
2023/07/14 03:43:38;;;;;;;8.77;4.90;;;665.60;2432.00;;;;;;5071314;28;20036;-82
2023/07/14 03:46:03;;;;;;;9.25;4.20;;;665.60;2432.00;;;;;;5071548;28;20032;-82
2023/07/14 03:48:29;;;;;;;6.72;4.18;;;665.60;2432.00;;;;;;5071637;28;20094;-80
2023/07/14 03:51:02;;;;;;;11.40;4.40;;;665.60;2432.00;;;;;;5071361;28;20045;-80
2023/07/14 03:53:28;;;;;;;9.35;3.78;;;665.60;2432.00;;;;;;5071838;28;20024;-82
2023/07/14 03:55:54;;;;;;;13.13;3.92;;;665.60;2432.00;;;;;;5075064;28;20033;-81
2023/07/14 03:58:20;;;;;;;10.00;3.90;;;640.90;2432.00;;;;;;5074894;28;20510;-82
2023/07/14 04:00:45;;;;;;;7.95;3.95;;;640.80;2432.00;;;;;;5075025;28;20024;-79
2023/07/14 04:03:11;;;;;;;11.80;3.97;;;640.80;2432.00;;;;;;5076427;28;20071;-79
2023/07/14 04:05:37;;;;;;;8.93;3.30;;;640.80;2432.00;;;;;;5076111;28;20523;-81
2023/07/14 04:08:03;;;;;;;9.85;3.70;;;640.80;2432.00;;;;;;5075053;28;20102;-79
2023/07/14 04:10:29;;;;;;;8.82;4.28;;;640.90;2432.00;;;;;;5074684;28;20135;-81
2023/07/14 04:12:59;;;;;;;10.00;3.55;;;640.70;2432.00;;;;;;5074788;28;20035;-81
2023/07/14 04:15:24;;;;;;;9.27;3.55;;;640.90;2432.00;;;;;;5074708;28;20059;-81
2023/07/14 04:17:50;;;;;;;6.68;3.20;;;640.80;2432.00;;;;;;5074423;28;20455;-80
2023/07/14 04:20:16;;;;;;;8.43;3.13;;;640.70;2432.00;;;;;;5074597;28;20047;-80
2023/07/14 04:22:43;;;;;;;7.10;3.10;;;640.80;2432.00;;;;;;5074640;28;20085;-81
2023/07/14 04:25:09;;;;;;;7.90;2.90;;;640.70;2432.00;;;;;;5074211;28;20056;-80
2023/07/14 04:27:36;;;;;;;7.53;3.08;;;640.80;2432.00;;;;;;5074354;28;20480;-80
2023/07/14 04:30:04;;;;;;;6.15;3.72;;;640.70;2432.00;;;;;;5074359;28;20480;-82
2023/07/14 04:32:30;;;;;;;6.07;3.78;;;640.70;2432.00;;;;;;5074055;28;20029;-81
2023/07/14 04:34:56;;;;;;;6.95;3.13;;;640.70;2432.00;;;;;;5074439;28;20074;-80
2023/07/14 04:37:22;;;;;;;7.55;3.20;;;640.70;2432.00;;;;;;5074295;28;20063;-81
2023/07/14 04:39:48;;;;;;;5.65;3.47;;;640.60;2432.00;;;;;;5073961;28;20421;-83
2023/07/14 04:42:13;;;;;;;6.93;3.88;;;640.70;2432.00;;;;;;5074294;28;20033;-81
2023/07/14 04:44:39;;;;;;;8.23;3.20;;;640.70;2432.00;;;;;;5074138;28;20035;-81
2023/07/14 04:47:06;;;;;;;6.75;3.13;;;640.70;2432.00;;;;;;5075485;28;20037;-80
2023/07/14 04:49:32;;;;;;;8.88;3.17;;;640.70;2432.00;;;;;;5074242;28;20062;-80
2023/07/14 04:51:58;;;;;;;11.00;3.42;;;640.80;2432.00;;;;;;5074019;28;20457;-80
2023/07/14 04:54:24;;;;;;;7.13;3.13;;;640.90;2432.00;;;;;;5075154;28;20106;-81
2023/07/14 04:56:50;;;;;;;8.70;3.17;;;640.90;2432.00;;;;;;5073827;28;20021;-81
2023/07/14 04:59:16;;;;;;;7.30;3.20;;;640.80;2432.00;;;;;;5075168;28;20070;-81
2023/07/14 05:01:42;;;;;;;6.07;2.60;;;640.80;2432.00;;;;;;5074956;28;20028;-81
2023/07/14 05:04:08;;;;;;;8.15;3.15;;;640.80;2432.00;;;;;;5073652;28;20048;-81
2023/07/14 05:06:34;;;;;;;9.00;2.72;;;640.90;2432.00;;;;;;5073113;28;20071;-81
2023/07/14 05:08:59;;;;;;;8.48;3.00;;;640.90;2432.00;;;;;;5073011;28;20059;-81
2023/07/14 05:11:26;;;;;;;5.65;2.60;;;665.60;2432.00;;;;;;5073652;28;20499;-82
2023/07/14 05:13:53;;;;;;;6.95;2.92;;;665.60;2432.00;;;;;;5073350;28;20035;-80
2023/07/14 05:16:19;;;;;;;4.72;2.50;;;665.60;2432.00;;;;;;5073957;28;20464;-82
2023/07/14 05:18:46;;;;;;;14.18;3.13;;;665.70;2432.00;;;;;;5073531;28;20025;-83
2023/07/14 05:21:12;;;;;;;7.13;3.72;;;665.70;2432.00;;;;;;5073288;28;20119;-82
2023/07/14 05:23:39;;;;;;;15.07;3.95;;;665.60;2432.00;;;;;;5074831;28;20028;-81
2023/07/14 05:26:05;;;;;;;11.68;4.05;;;665.70;2432.00;;;;;;5073563;28;20052;-80
2023/07/14 05:28:31;;;;;;;13.40;4.47;;;665.80;2432.00;;;;;;5073594;28;20035;-82
2023/07/14 05:30:58;;;;;;;12.43;4.32;;;665.80;2432.00;;;;;;5073526;28;20115;-81
2023/07/14 05:33:23;;;;;;;8.43;4.03;;;640.60;2432.00;;;;;;5073445;28;20035;-80
2023/07/14 05:35:49;;;;;;;9.18;4.60;;;665.90;2432.00;;;;;;5074637;28;20369;-83
2023/07/14 05:38:15;;;;;;;13.63;4.20;;;666.00;2432.00;;;;;;5074898;28;20025;-83
2023/07/14 05:40:41;;;;;;;13.07;4.50;;;666.00;2432.00;;;;;;5073420;28;20025;-85
2023/07/14 05:43:07;;;;;;;14.27;4.60;;;666.00;2432.00;;;;;;5074516;28;20034;-83
2023/07/14 05:45:33;;;;;;;10.65;4.38;;;666.10;2432.00;;;;;;5074255;28;20477;-83
2023/07/14 05:47:59;;;;;;;8.52;4.18;;;666.10;2432.00;;;;;;5074566;28;20078;-80
2023/07/14 05:50:25;;;;;;;7.22;3.92;;;666.20;2432.00;;;;;;5072923;28;20029;-82
2023/07/14 05:52:51;;;;;;;7.85;4.32;;;666.20;2432.00;;;;;;5073118;28;20460;-80
2023/07/14 05:55:17;;;;;;;12.50;4.22;;;666.30;2432.00;;;;;;5074106;28;20086;-83
2023/07/14 05:57:43;;;;;;;14.23;3.88;;;666.30;2432.00;;;;;;5084596;28;20036;-79
2023/07/14 06:00:16;;;;;;;7.18;3.83;;;666.50;2432.00;;;;;;5084853;28;20464;-81
2023/07/14 06:02:47;;;;;;;7.82;4.20;;;666.50;2432.00;;;;;;5089730;28;20028;-82
2023/07/14 06:05:14;;;;;;;6.18;4.00;;;666.20;2432.00;;;;;;5072927;28;20101;-80
2023/07/14 06:07:40;;;;;;;8.23;3.60;;;666.30;2432.00;;;;;;5074334;28;20056;-79
2023/07/14 06:10:08;;;;;;;10.70;4.07;;;666.40;2432.00;;;;;;5073774;28;20071;-79
2023/07/14 06:12:35;;;;;;;7.80;3.67;;;666.50;2432.00;;;;;;5074053;28;20107;-81
2023/07/14 06:15:01;;;;;;;14.18;5.05;;;691.20;2432.00;;;;;;5074361;28;20055;-78
2023/07/14 06:17:27;;;;;;;13.68;4.05;;;691.20;2432.00;;;;;;5071527;28;20086;-79
2023/07/14 06:19:53;;;;;;;11.32;4.00;;;691.60;2432.00;;;;;;5072704;28;20021;-80
2023/07/14 06:22:20;;;;;;;9.75;3.67;;;691.20;2432.00;;;;;;5072651;28;20031;-80
2023/07/14 06:24:48;;;;;;;8.27;3.08;;;691.20;2432.00;;;;;;5071697;28;20028;-80
2023/07/14 06:27:15;;;;;;;7.80;3.30;;;691.90;2432.00;;;;;;5071804;28;20037;-80
2023/07/14 06:29:40;;;;;;;6.53;3.50;;;691.60;2432.00;;;;;;5073784;28;20099;-80
2023/07/14 06:32:07;;;;;;;10.05;3.40;;;691.80;2432.00;;;;;;5072231;28;20028;-79
2023/07/14 06:34:33;;;;;;;14.32;3.92;;;691.80;2432.00;;;;;;5072385;28;20460;-79
2023/07/14 06:36:58;;;;;;;10.15;3.15;;;691.80;2432.00;;;;;;5072272;28;20032;-78
2023/07/14 06:39:24;;;;;;;8.20;3.50;;;691.80;2432.00;;;;;;5071961;28;20033;-79
2023/07/14 06:41:50;;;;;;;10.35;3.53;;;691.80;2432.00;;;;;;5073440;28;20025;-79
2023/07/14 06:44:16;;;;;;;6.85;3.00;;;691.80;2432.00;;;;;;5073479;28;20029;-80
2023/07/14 06:46:42;;;;;;;7.90;3.40;;;691.90;2432.00;;;;;;5071976;28;20039;-78
2023/07/14 06:49:09;;;;;;;7.15;3.13;;;691.90;2432.00;;;;;;5071605;28;20059;-80
2023/07/14 06:51:35;;;;;;;7.45;3.25;;;691.90;2432.00;;;;;;5073308;28;20357;-78
2023/07/14 06:54:01;;;;;;;7.55;3.00;;;692.00;2432.00;;;;;;5071214;28;20111;-77
2023/07/14 06:56:26;;;;;;;6.97;2.85;;;691.90;2432.00;;;;;;5109183;28;20119;-76
2023/07/14 06:58:52;;;;;;;7.50;3.05;;;692.00;2432.00;;;;;;5090805;28;20028;-78
2023/07/14 07:01:20;;;;;;;7.70;3.33;;;716.80;2432.00;;;;;;5072179;28;20025;-76
2023/07/14 07:03:46;;;;;;;9.20;3.30;;;716.80;2432.00;;;;;;5073454;28;20024;-78
2023/07/14 07:06:15;;;;;;;9.45;3.95;;;716.90;2432.00;;;;;;5072730;28;20028;-77
2023/07/14 07:08:42;;;;;;;7.38;2.85;;;717.20;2432.00;;;;;;5088622;28;20494;-78
2023/07/14 07:11:10;;;;;;;9.98;3.60;;;717.30;2432.00;;;;;;5088925;28;20074;-79
2023/07/14 07:13:36;;;;;;;7.43;4.22;;;717.40;2432.00;;;;;;5088701;28;20048;-77
2023/07/14 07:16:02;;;;;;;7.05;3.25;;;717.50;2432.00;;;;;;5088794;28;20464;-78
2023/07/14 07:18:28;;;;;;;9.93;3.63;;;717.70;2432.00;;;;;;5071900;28;20119;-78
2023/07/14 07:20:54;;;;;;;8.77;4.07;;;742.40;2432.00;;;;;;5072747;28;20020;-76
2023/07/14 07:23:20;;;;;;;8.93;3.97;;;742.50;2432.00;;;;;;5088733;28;20047;-76
2023/07/14 07:25:53;;;;;;;8.15;3.22;;;742.50;2432.00;;;;;;5071879;28;20028;-77
2023/07/14 07:28:20;;;;;;;8.07;3.70;;;742.50;2432.00;;;;;;5088905;28;20039;-77
2023/07/14 07:30:46;;;;;;;9.90;6.90;;;742.50;2432.00;;;;;;5093229;28;20027;-78
2023/07/14 07:33:13;;;;;;;7.32;3.30;;;742.60;2432.00;;;;;;5075513;28;20028;-79
2023/07/14 07:35:43;;;;;;;9.73;3.38;;;742.60;2432.00;;;;;;5074131;28;20032;-78
2023/07/14 07:38:11;;;;;;;9.20;3.75;;;742.60;2432.00;;;;;;5076396;28;20070;-80
2023/07/14 07:40:44;;;;;;;8.68;5.18;;;742.60;2432.00;;;;;;5075399;28;20082;-79
2023/07/14 07:43:10;;;;;;;9.43;3.95;;;742.70;2432.00;;;;;;5076922;28;20515;-80
2023/07/14 07:45:35;;;;;;;9.75;4.18;;;742.80;2432.00;;;;;;5075128;28;20028;-82
2023/07/14 07:48:01;;;;;;;7.32;4.30;;;742.80;2432.00;;;;;;5075179;28;20387;-78
2023/07/14 07:50:27;;;;;;;13.90;10.50;;;743.00;2432.00;;;;;;5075209;28;20450;-79
2023/07/14 07:52:53;;;;;;;20.65;18.30;;;743.00;2432.00;;;;;;5075446;28;20111;-79
2023/07/14 07:55:19;;;;;;;14.93;6.70;;;743.10;2432.00;;;;;;5074929;28;20128;-81
2023/07/14 07:57:47;;;;;;;21.67;17.33;;;743.10;2432.00;;;;;;5075010;28;20052;-82
2023/07/14 08:00:15;;;;;;;11.82;4.28;;;743.30;2380.80;;;;;;5075131;28;20028;-82
2023/07/14 08:02:42;;;;;;;13.30;7.88;;;743.20;2355.20;;;;;;5076360;28;20024;-81
2023/07/14 08:05:12;;;;;;;11.45;4.30;;;743.20;2355.20;;;;;;5074957;28;20032;-80
2023/07/14 08:07:38;;;;;;;7.30;3.70;;;743.20;2355.20;;;;;;5073863;28;20035;-78
2023/07/14 08:10:05;;;;;;;14.00;8.35;;;743.10;2329.60;;;;;;5072710;28;20052;-80
2023/07/14 08:12:31;;;;;;;9.13;3.90;;;743.30;2355.20;;;;;;5074151;28;20063;-81
2023/07/14 08:14:58;;;;;;;11.93;4.18;;;768.10;2329.60;;;;;;5089760;28;20066;-81
2023/07/14 08:17:26;;;;;;;10.00;3.50;;;768.10;2329.60;;;;;;5093487;28;20031;-79
2023/07/14 08:19:52;;;;;;;8.57;4.07;;;768.40;2329.60;;;;;;5094333;28;20020;-80
2023/07/14 08:22:19;;;;;;;10.20;4.22;;;768.20;2329.60;;;;;;5095796;28;20028;-82
2023/07/14 08:24:45;;;;;;;6.57;3.53;;;768.60;2304.00;;;;;;5094021;28;20460;-82
2023/07/14 08:27:11;;;;;;;7.97;3.63;;;768.70;2278.40;;;;;;5094785;28;20039;-81
2023/07/14 08:29:37;;;;;;;6.85;3.65;;;768.90;2278.40;;;;;;5094171;28;20035;-80
2023/07/14 08:32:03;;;;;;;10.10;4.10;;;768.70;2252.80;;;;;;5094569;28;20085;-81
2023/07/14 08:34:29;;;;;;;10.45;4.30;;;768.80;2278.40;;;;;;5096746;28;20028;-82
2023/07/14 08:36:56;;;;;;;8.77;3.60;;;768.80;2252.80;;;;;;5113195;28;20031;-81
2023/07/14 08:39:21;;;;;;;10.00;4.32;;;768.90;2252.80;;;;;;5095810;28;20024;-81
2023/07/14 08:41:52;;;;;;;9.82;5.20;;;793.60;2278.40;;;;;;5093618;28;20024;-83
2023/07/14 08:44:42;;;;;;;9.65;4.82;;;793.60;2278.40;;;;;;5095211;28;20059;-81
2023/07/14 08:47:23;;;;;;;10.82;4.07;;;768.90;2252.80;;;;;;5094428;28;20024;-82
2023/07/14 08:49:53;;;;;;;;;;;793.70;2278.40;;;;;;5095132;28;20020;-83
2023/07/14 08:52:26;;;;;;;8.38;3.75;;;793.70;2252.80;;;;;;5094142;28;19904;-82
2023/07/14 08:55:06;;;;;;;10.30;4.15;;;768.90;2227.20;;;;;;5094199;28;20028;-82
2023/07/14 08:57:46;;;;;;;7.25;4.25;;;793.60;2252.80;;;;;;5094343;28;20066;-83
2023/07/14 09:00:20;;;;;;;7.72;4.38;;;793.60;2227.20;;;;;;5094307;28;20426;-83
2023/07/14 09:02:55;;;;;;;11.02;5.03;;;793.70;2227.20;;;;;;5093469;28;20024;-80
2023/07/14 09:05:28;;;;;;;12.32;8.00;;;794.00;2227.20;;;;;;5089428;28;20044;-82
2023/07/14 09:07:55;;;;;;;8.85;4.43;;;794.30;2201.60;;;;;;5093401;28;20032;-80
2023/07/14 09:10:38;;;;;;;11.38;5.07;;;794.50;2176.00;;;;;;5094607;28;20123;-80
2023/07/14 09:13:31;;;;;;;9.80;4.68;;;794.30;2176.00;;;;;;5092709;28;20109;-81
2023/07/14 09:15:57;;;;;;;10.30;5.07;;;794.50;2176.00;;;;;;5093365;28;20460;-83
2023/07/14 09:18:47;;;;;;;10.32;7.20;;;819.30;2176.00;;;;;;5093331;28;20119;-82
2023/07/14 09:21:55;;;;;;;7.85;4.60;;;819.60;2150.40;;;;;;5093738;28;20030;-82
2023/07/14 09:24:24;;;;;;;11.75;5.30;;;;;;;;;;5035552;28;20405;-80
2023/07/14 09:26:55;;;;;;;6.90;4.40;;;;;;;;;;5034790;28;20547;-79
2023/07/14 09:29:29;;;;;;;6.82;4.10;;;;;;;;;;5052182;28;20059;-80
2023/07/14 09:32:16;;;;;;;9.18;4.00;;;;;;;;;;5035660;28;20103;-79
2023/07/14 09:34:51;;;;;;;6.97;4.18;;;;;;;;;;5038292;28;20044;-80
2023/07/14 09:37:22;;;;;;;10.27;4.28;;;;;;;;;;5035267;28;20473;-79
2023/07/14 09:39:57;;;;;;;10.77;4.95;;;845.50;2048.00;;;;;;5034974;28;20044;-78
2023/07/14 09:42:31;;;;;;;10.52;4.38;;;845.40;2073.60;;;;;;5035472;28;20025;-79
2023/07/14 09:44:59;;;;;;;7.05;4.22;;;;;;;;;;5034889;28;20038;-79
2023/07/14 09:47:25;;;;;;;10.40;3.80;;;;;;;;;;5034774;28;20033;-80
2023/07/14 09:49:57;;;;;;;10.57;4.35;;;;;;;;;;5035027;28;20021;-79
2023/07/14 09:52:25;;;;;;;;;;;845.70;2073.60;;;;;;5049359;28;20179;-80
2023/07/14 09:54:59;;;;;;;10.10;3.88;;;845.60;2048.00;;;;;;5015077;28;19915;-80
2023/07/14 09:57:28;;;;;;;10.82;4.25;;;845.30;2073.60;;;;;;5019340;28;20141;-80
2023/07/14 10:00:39;;;;;;;6.90;4.55;;;845.60;2073.60;;;;;;5058932;28;20043;-81
2023/07/14 10:03:25;;;;;;;7.07;3.42;;;845.70;2048.00;;;;;;5094835;28;20040;-80
2023/07/14 10:05:55;;;;;;;8.52;4.90;;;870.60;2048.00;;;;;;5093603;28;20067;-80
2023/07/14 10:08:34;;;;;;;7.75;4.20;;;870.60;2048.00;;;;;;5094330;28;20095;-79
2023/07/14 10:11:22;;;;;;;8.35;3.65;;;870.50;2022.40;;;;;;5093127;28;20487;-79
2023/07/14 10:14:00;;;;;;;5.65;3.70;;;870.50;2022.40;;;;;;5092172;28;20051;-79
2023/07/14 10:16:29;;;;;;;8.15;3.15;;;845.40;2073.60;;;;;;5093878;28;20032;-79
2023/07/14 10:19:00;;;;;;;6.82;3.55;;;845.40;2099.20;;;;;;5093875;28;20464;-79
2023/07/14 10:21:32;;;;;;;7.63;3.60;;;845.60;2099.20;;;;;;5092119;28;20109;-82
2023/07/14 10:23:59;;;;;;;4.82;3.33;;;870.50;2073.60;;;;;;5092682;28;20522;-79
2023/07/14 10:26:30;;;;;;;5.93;3.95;;;870.50;2022.40;;;;;;5092050;28;20548;-81
2023/07/14 10:28:57;;;;;;;8.00;4.00;;;870.60;2073.60;;;;;;5092597;28;20024;-79
2023/07/14 10:31:37;;;;;;;8.07;3.80;;;871.30;2048.00;;;;;;5092667;28;20035;-80
2023/07/14 10:34:38;;;;;;;6.30;3.70;;;871.10;2022.40;;;;;;5092987;28;20066;-79
2023/07/14 10:37:14;;;;;;;5.40;3.25;;;871.20;2022.40;;;;;;5063895;28;20361;-79
2023/07/14 10:39:48;;;;;;;7.15;4.55;;;871.30;1996.80;;;;;;5089410;28;20427;-80
2023/07/14 10:42:21;;;;;;;6.82;3.60;;;871.30;1996.80;;;;;;5089304;28;20111;-80
2023/07/14 10:44:48;;;;;;;9.13;4.70;;;871.30;1996.80;;;;;;5088386;28;20025;-80
2023/07/14 10:47:53;;;;;;;7.38;3.88;;;896.40;1996.80;;;;;;5089150;28;20033;-80
2023/07/14 10:50:29;;;;;;;8.25;3.42;;;896.60;1971.20;;;;;;5066642;28;20094;-79
2023/07/14 10:53:07;;;;;;;8.50;3.83;;;896.80;1945.60;;;;;;5088895;28;20074;-80
2023/07/14 10:55:36;;;;;;;7.07;2.95;;;896.80;1971.20;;;;;;5073149;28;20476;-80
2023/07/14 10:58:11;;;;;;;6.35;3.17;;;896.70;1945.60;;;;;;5089393;28;20044;-80
2023/07/14 11:00:42;;;;;;;9.82;3.10;;;896.80;1971.20;;;;;;5072387;28;20024;-79
2023/07/14 11:03:19;;;;;;;6.50;2.67;;;896.80;1945.60;;;;;;5072125;28;20465;-79
2023/07/14 11:05:55;;;;;;;7.47;2.80;;;921.60;1971.20;;;;;;5076857;28;20036;-78
2023/07/14 11:08:23;;;;;;;5.65;2.65;;;921.60;1971.20;;;;;;5083824;28;20055;-79
2023/07/14 11:11:17;;;;;;;6.60;2.85;;;921.70;1971.20;;;;;;5095749;28;20491;-78
2023/07/14 11:13:49;;;;;;;7.40;3.15;;;921.70;1945.60;;;;;;5105630;28;20024;-78
2023/07/14 11:16:56;;;;;;;5.55;2.78;;;921.80;1945.60;;;;;;5100829;28;20054;-79
2023/07/14 11:19:55;;;;;;;6.25;3.03;;;921.70;1945.60;;;;;;5095763;28;20032;-80
2023/07/14 11:23:08;;;;;;;10.15;3.53;;;922.00;1945.60;;;;;;5096158;28;20031;-80
2023/07/14 11:25:45;;;;;;;7.28;2.80;;;922.00;1945.60;;;;;;5070909;28;20121;-79
2023/07/14 11:28:56;;;;;;;5.90;3.22;;;922.00;1945.60;;;;;;5077722;28;20040;-79
2023/07/14 11:31:29;;;;;;;6.05;2.65;;;922.40;1920.00;;;;;;5034539;28;20159;-80
2023/07/14 11:34:16;;;;;;;4.20;2.40;;;922.40;1894.40;;;;;;5034269;28;20026;-78
2023/07/14 11:37:03;;;;;;;4.13;2.80;;;922.30;1894.40;;;;;;5034554;28;20049;-79
2023/07/14 11:39:46;;;;;;;5.95;2.92;;;922.00;1920.00;;;;;;5034147;28;20478;-78
2023/07/14 11:42:26;;;;;;;5.40;3.03;;;922.10;1920.00;;;;;;5034398;28;20044;-79
2023/07/14 11:44:55;;;;;;;7.45;3.83;;;922.40;1894.40;;;;;;5033707;28;20036;-80
2023/07/14 11:47:38;;;;;;;6.57;3.20;;;922.30;1894.40;;;;;;5017204;28;20034;-81
2023/07/14 11:50:19;;;;;;;5.45;2.90;;;922.50;1894.40;;;;;;5034180;28;20042;-79
2023/07/14 11:53:06;;;;;;;5.13;2.90;;;947.20;1894.40;;;;;;5033866;28;20037;-79
2023/07/14 11:55:35;;;;;;;9.38;4.90;;;947.20;1894.40;;;;;;5035567;28;20513;-78
2023/07/14 11:58:27;;;;;;;6.20;3.85;;;922.50;1894.40;;;;;;5037380;28;20071;-81
2023/07/14 12:01:15;;;;;;;6.45;3.78;;;947.30;1894.40;;;;;;5055291;28;20033;-80
2023/07/14 12:03:48;;;;;;;8.05;3.10;;;947.30;1868.80;;;;;;5095482;28;20077;-79
2023/07/14 12:06:23;;;;;;;6.35;2.63;;;947.50;1894.40;;;;;;5094670;28;20036;-80
2023/07/14 12:09:16;;;;;;;4.40;2.40;;;947.50;1894.40;;;;;;5095946;28;20032;-82
2023/07/14 12:11:57;;;;;;;4.78;2.50;;;947.50;1868.80;;;;;;5090810;28;20036;-79
2023/07/14 12:14:43;;;;;;;4.85;2.83;;;947.30;1894.40;;;;;;5095097;28;20372;-81
2023/07/14 12:17:36;;;;;;;10.40;3.70;;;922.50;1894.40;;;;;;5096175;28;20487;-80
2023/07/14 12:20:11;;;;;;;4.53;2.80;;;947.50;1894.40;;;;;;5095084;28;20024;-77
2023/07/14 12:22:43;;;;;;;6.90;3.42;;;947.30;1894.40;;;;;;5094729;28;20376;-78
2023/07/14 12:25:15;;;;;;;6.63;3.00;;;947.20;1894.40;;;;;;5094510;28;20029;-80
2023/07/14 12:27:50;;;;;;;5.28;3.03;;;947.30;1894.40;;;;;;5094664;28;20149;-79
2023/07/14 12:30:29;;;;;;;7.70;2.80;;;947.60;1868.80;;;;;;5095109;28;20093;-79
2023/07/14 12:33:13;;;;;;;6.47;2.75;;;947.60;1843.20;;;;;;5095171;28;20031;-78
2023/07/14 12:35:39;;;;;;;5.15;2.53;;;947.60;1868.80;;;;;;5096041;28;20452;-79